createdAt,value
2017-01-19T00:00:41.687Z,0
2017-01-19T00:01:41.984Z,0
2017-01-19T00:02:41.674Z,0
2017-01-19T00:03:41.706Z,0
2017-01-19T00:04:41.665Z,0
2017-01-19T00:05:41.678Z,0
2017-01-19T00:06:41.765Z,0
2017-01-19T00:07:41.840Z,0
2017-01-19T00:08:41.616Z,0
2017-01-19T00:09:41.780Z,0
2017-01-19T00:10:41.662Z,0
2017-01-19T00:11:41.699Z,0
2017-01-19T00:12:41.622Z,0
2017-01-19T00:13:41.970Z,0
2017-01-19T00:14:41.661Z,0
2017-01-19T00:15:41.645Z,0
2017-01-19T00:16:41.624Z,0
2017-01-19T00:17:41.636Z,0
2017-01-19T00:18:41.683Z,0
2017-01-19T00:19:41.607Z,0
2017-01-19T00:20:41.791Z,0
2017-01-19T00:21:41.643Z,0
2017-01-19T00:22:41.649Z,0
2017-01-19T00:23:41.681Z,0
2017-01-19T00:24:41.615Z,0
2017-01-19T00:25:41.739Z,0
2017-01-19T00:26:41.658Z,0
2017-01-19T00:27:41.626Z,0
2017-01-19T00:28:41.662Z,0
2017-01-19T00:29:41.757Z,0
2017-01-19T00:30:41.650Z,0
2017-01-19T00:31:41.669Z,0
2017-01-19T00:32:41.719Z,0
2017-01-19T00:33:41.612Z,0
2017-01-19T00:34:41.658Z,0
2017-01-19T00:35:41.649Z,0
2017-01-19T00:36:41.660Z,0
2017-01-19T00:37:41.720Z,0
2017-01-19T00:38:41.645Z,0
2017-01-19T00:39:41.692Z,0
2017-01-19T00:40:41.644Z,0
2017-01-19T00:41:41.637Z,0
2017-01-19T00:42:41.614Z,0
2017-01-19T00:43:41.631Z,0
2017-01-19T00:44:41.858Z,0
2017-01-19T00:45:41.663Z,0
2017-01-19T00:46:41.627Z,0
2017-01-19T00:47:41.800Z,0
2017-01-19T00:48:41.621Z,0
2017-01-19T00:49:41.701Z,0
2017-01-19T00:50:41.666Z,0
2017-01-19T00:51:41.664Z,0
2017-01-19T00:52:43.870Z,0
2017-01-19T00:53:41.760Z,0
2017-01-19T00:54:41.651Z,0
2017-01-19T00:55:41.654Z,0
2017-01-19T00:56:41.731Z,0
2017-01-19T00:57:41.689Z,0
2017-01-19T00:58:41.690Z,0
2017-01-19T00:59:41.636Z,0
2017-01-19T01:00:41.677Z,0
2017-01-19T01:01:41.655Z,0
2017-01-19T01:02:41.728Z,0
2017-01-19T01:03:41.685Z,0
2017-01-19T01:04:41.743Z,0
2017-01-19T01:05:41.726Z,0
2017-01-19T01:06:41.736Z,0
2017-01-19T01:07:43.046Z,0
2017-01-19T01:08:41.735Z,0
2017-01-19T01:09:41.711Z,0
2017-01-19T01:10:41.859Z,0
2017-01-19T01:11:41.651Z,0
2017-01-19T01:12:41.685Z,0
2017-01-19T01:13:41.720Z,0
2017-01-19T01:14:41.665Z,0
2017-01-19T01:15:41.638Z,0
2017-01-19T01:16:41.703Z,0
2017-01-19T01:21:59.351Z,0
2017-01-19T01:22:09.362Z,0
2017-01-19T01:23:09.407Z,0
2017-01-19T01:24:09.364Z,0
2017-01-19T01:25:09.365Z,0
2017-01-19T01:26:09.367Z,0
2017-01-19T01:27:09.480Z,0
2017-01-19T01:28:09.357Z,0
2017-01-19T01:29:09.362Z,0
2017-01-19T01:30:09.458Z,0
2017-01-19T01:31:09.560Z,0
2017-01-19T01:32:09.441Z,0
2017-01-19T01:33:09.544Z,0
2017-01-19T01:34:09.489Z,0
2017-01-19T01:35:09.568Z,0
2017-01-19T01:36:09.461Z,0
2017-01-19T01:37:09.451Z,0
2017-01-19T01:38:09.487Z,0
2017-01-19T01:39:09.465Z,0
2017-01-19T01:40:09.426Z,0
2017-01-19T01:41:09.410Z,0
2017-01-19T01:42:09.431Z,0
2017-01-19T01:43:09.455Z,0
2017-01-19T01:44:09.503Z,0
2017-01-19T01:45:09.388Z,0
2017-01-19T01:46:09.401Z,0
2017-01-19T01:47:09.388Z,0
2017-01-19T01:48:09.406Z,0
2017-01-19T01:49:09.368Z,0
2017-01-19T01:50:09.488Z,0
2017-01-19T01:51:09.463Z,0
2017-01-19T01:52:09.569Z,0
2017-01-19T01:53:09.416Z,0
2017-01-19T01:54:09.409Z,0
2017-01-19T01:55:09.407Z,0
2017-01-19T01:56:09.387Z,0
2017-01-19T01:57:09.444Z,0
2017-01-19T01:58:09.430Z,0
2017-01-19T01:59:09.392Z,0
2017-01-19T02:00:09.386Z,0
2017-01-19T02:01:09.432Z,0
2017-01-19T02:02:09.389Z,0
2017-01-19T02:03:09.408Z,0
2017-01-19T02:04:09.459Z,0
2017-01-19T02:05:09.397Z,0
2017-01-19T02:06:09.408Z,0
2017-01-19T02:07:09.399Z,0
2017-01-19T02:08:09.416Z,0
2017-01-19T02:09:09.416Z,0
2017-01-19T02:10:09.551Z,0
2017-01-19T02:11:09.406Z,0
2017-01-19T02:12:09.521Z,0
2017-01-19T02:13:09.414Z,0
2017-01-19T02:14:09.439Z,0
2017-01-19T02:15:09.402Z,0
2017-01-19T02:16:09.399Z,0
2017-01-19T02:17:09.568Z,0
2017-01-19T02:18:09.614Z,0
2017-01-19T02:19:09.431Z,0
2017-01-19T02:20:09.437Z,0
2017-01-19T02:21:09.384Z,0
2017-01-19T02:25:37.068Z,0
2017-01-19T02:26:37.135Z,0
2017-01-19T02:27:37.051Z,0
2017-01-19T02:28:37.057Z,0
2017-01-19T02:29:37.090Z,0
2017-01-19T02:30:37.071Z,0
2017-01-19T02:31:37.098Z,0
2017-01-19T02:32:37.101Z,0
2017-01-19T02:33:37.153Z,0
2017-01-19T02:34:37.066Z,0
2017-01-19T02:35:37.306Z,0
2017-01-19T02:36:37.154Z,0
2017-01-19T02:37:37.232Z,0
2017-01-19T02:38:37.118Z,0
2017-01-19T02:39:37.188Z,0
2017-01-19T02:40:37.070Z,0
2017-01-19T02:41:37.071Z,0
2017-01-19T02:42:37.171Z,0
2017-01-19T02:43:37.218Z,0
2017-01-19T02:44:37.120Z,0
2017-01-19T02:45:37.097Z,0
2017-01-19T02:46:37.107Z,0
2017-01-19T02:47:37.097Z,0
2017-01-19T02:48:37.185Z,0
2017-01-19T02:49:37.124Z,0
2017-01-19T02:50:37.146Z,0
2017-01-19T02:51:37.174Z,0
2017-01-19T02:52:37.204Z,0
2017-01-19T02:53:37.095Z,0
2017-01-19T02:54:37.121Z,0
2017-01-19T02:55:37.076Z,0
2017-01-19T02:56:37.156Z,0
2017-01-19T02:57:37.273Z,0
2017-01-19T02:58:37.197Z,0
2017-01-19T02:59:37.234Z,0
2017-01-19T03:00:37.106Z,0
2017-01-19T03:01:37.180Z,0
2017-01-19T03:02:37.225Z,0
2017-01-19T03:03:37.165Z,0
2017-01-19T03:04:37.361Z,0
2017-01-19T03:05:37.099Z,0
2017-01-19T03:06:37.128Z,0
2017-01-19T03:07:37.089Z,0
2017-01-19T03:08:37.113Z,0
2017-01-19T03:09:37.166Z,0
2017-01-19T03:10:37.115Z,0
2017-01-19T03:11:37.148Z,0
2017-01-19T03:12:37.206Z,0
2017-01-19T03:13:37.101Z,0
2017-01-19T03:14:37.332Z,0
2017-01-19T03:15:37.118Z,0
2017-01-19T03:16:37.180Z,0
2017-01-19T03:17:37.153Z,0
2017-01-19T03:18:37.170Z,0
2017-01-19T03:19:37.171Z,0
2017-01-19T03:20:37.098Z,0
2017-01-19T03:21:37.292Z,0
2017-01-19T03:29:03.107Z,0
2017-01-19T03:29:26.974Z,0
2017-01-19T03:30:23.724Z,0
2017-01-19T03:31:27.537Z,0
2017-01-19T03:32:26.566Z,0
2017-01-19T03:33:26.461Z,0
2017-01-19T03:34:26.022Z,0
2017-01-19T03:35:27.383Z,0
2017-01-19T03:36:26.765Z,0
2017-01-19T03:37:26.335Z,0
2017-01-19T03:38:26.275Z,0
2017-01-19T03:39:27.513Z,0
2017-01-19T03:40:30.736Z,0
2017-01-19T03:41:27.647Z,0
2017-01-19T03:42:22.449Z,0
2017-01-19T03:43:27.957Z,0
2017-01-19T03:44:28.333Z,0
2017-01-19T03:45:28.074Z,0
2017-01-19T03:46:27.778Z,0
2017-01-19T03:47:26.146Z,0
2017-01-19T03:48:29.661Z,0
2017-01-19T03:49:28.595Z,0
2017-01-19T03:50:29.314Z,0
2017-01-19T03:51:27.335Z,0
2017-01-19T03:52:27.351Z,0
2017-01-19T03:53:30.032Z,0
2017-01-19T03:54:27.881Z,0
2017-01-19T03:55:26.685Z,0
2017-01-19T03:56:28.643Z,0
2017-01-19T03:57:27.199Z,0
2017-01-19T03:58:27.810Z,0
2017-01-19T03:59:26.734Z,0
2017-01-19T04:00:27.745Z,0
2017-01-19T04:01:25.432Z,0
2017-01-19T04:02:26.407Z,0
2017-01-19T04:03:27.994Z,0
2017-01-19T04:04:30.077Z,0
2017-01-19T04:09:14.382Z,0
2017-01-19T04:10:14.529Z,0
2017-01-19T04:11:10.404Z,0
2017-01-19T04:12:08.881Z,0
2017-01-19T04:13:09.253Z,0
2017-01-19T04:14:08.497Z,0
2017-01-19T04:15:09.855Z,0
2017-01-19T04:16:10.684Z,0
2017-01-19T04:17:11.180Z,0
2017-01-19T04:18:11.193Z,0
2017-01-19T04:19:09.530Z,0
2017-01-19T04:20:10.895Z,0
2017-01-19T04:21:10.659Z,0
2017-01-19T04:22:10.019Z,0
2017-01-19T04:23:10.503Z,0
2017-01-19T04:24:11.957Z,0
2017-01-19T04:25:10.627Z,0
2017-01-19T04:26:10.230Z,0
2017-01-19T04:27:10.233Z,0
2017-01-19T04:28:10.583Z,0
2017-01-19T04:29:10.925Z,0
2017-01-19T04:30:10.740Z,0
2017-01-19T04:31:10.551Z,0
2017-01-19T04:32:11.236Z,0
2017-01-19T04:33:11.498Z,0
2017-01-19T04:34:11.213Z,0
2017-01-19T04:35:10.468Z,0
2017-01-19T04:36:12.035Z,0
2017-01-19T04:37:11.259Z,0
2017-01-19T04:38:11.247Z,0
2017-01-19T04:39:09.242Z,0
2017-01-19T04:40:01.674Z,0
2017-01-19T04:41:01.653Z,0
2017-01-19T04:42:01.684Z,0
2017-01-19T04:43:01.682Z,0
2017-01-19T04:44:01.687Z,0
2017-01-19T04:45:01.691Z,0
2017-01-19T04:46:01.671Z,0
2017-01-19T04:47:01.686Z,0
2017-01-19T04:48:01.688Z,0
2017-01-19T04:49:01.659Z,0
2017-01-19T04:50:01.686Z,0
2017-01-19T04:51:01.701Z,0
2017-01-19T04:52:01.669Z,0
2017-01-19T04:53:01.683Z,0
2017-01-19T04:54:01.726Z,0
2017-01-19T04:55:01.682Z,0
2017-01-19T04:56:01.722Z,0
2017-01-19T04:57:01.694Z,0
2017-01-19T04:58:01.689Z,0
2017-01-19T04:59:01.693Z,0
2017-01-19T05:00:01.689Z,0
2017-01-19T05:01:01.695Z,0
2017-01-19T05:02:01.705Z,0
2017-01-19T05:03:01.698Z,0
2017-01-19T05:04:01.691Z,0
2017-01-19T05:05:01.698Z,0
2017-01-19T05:11:39.097Z,0
2017-01-19T05:12:39.082Z,0
2017-01-19T05:13:39.093Z,0
2017-01-19T05:14:39.099Z,0
2017-01-19T05:15:39.078Z,0
2017-01-19T05:16:39.080Z,0
2017-01-19T05:17:39.092Z,0
2017-01-19T05:18:39.109Z,0
2017-01-19T05:19:39.084Z,0
2017-01-19T05:20:39.086Z,0
2017-01-19T05:21:39.085Z,0
2017-01-19T05:22:39.105Z,0
2017-01-19T05:23:39.102Z,0
2017-01-19T05:24:39.103Z,0
2017-01-19T05:25:39.094Z,0
2017-01-19T05:26:39.097Z,0
2017-01-19T05:27:39.141Z,0
2017-01-19T05:28:39.108Z,0
2017-01-19T05:29:39.101Z,0
2017-01-19T05:30:39.110Z,0
2017-01-19T05:31:39.116Z,0
2017-01-19T05:32:39.100Z,0
2017-01-19T05:33:39.091Z,0
2017-01-19T05:34:39.108Z,0
2017-01-19T05:35:39.138Z,0
2017-01-19T05:36:39.097Z,0
2017-01-19T05:37:39.096Z,0
2017-01-19T05:38:39.100Z,0
2017-01-19T05:39:39.114Z,0
2017-01-19T05:40:39.076Z,0
2017-01-19T05:41:39.107Z,0
2017-01-19T05:42:39.129Z,0
2017-01-19T05:43:39.091Z,0
2017-01-19T05:44:39.218Z,0
2017-01-19T05:45:39.118Z,0
2017-01-19T05:46:39.124Z,0
2017-01-19T05:47:39.107Z,0
2017-01-19T05:48:39.129Z,0
2017-01-19T05:49:39.098Z,0
2017-01-19T05:50:39.130Z,0
2017-01-19T05:51:39.113Z,0
2017-01-19T05:52:39.112Z,0
2017-01-19T05:53:39.115Z,0
2017-01-19T05:54:39.110Z,0
2017-01-19T05:55:39.122Z,0
2017-01-19T05:56:39.115Z,0
2017-01-19T05:57:39.103Z,0
2017-01-19T05:58:39.123Z,0
2017-01-19T05:59:39.102Z,0
2017-01-19T06:00:39.138Z,0
2017-01-19T06:01:39.164Z,0
2017-01-19T06:02:39.141Z,0
2017-01-19T06:03:39.156Z,0
2017-01-19T06:04:39.137Z,0
2017-01-19T06:05:39.106Z,0
2017-01-19T06:06:39.180Z,0
2017-01-19T06:07:39.117Z,0
2017-01-19T06:08:39.140Z,0
2017-01-19T06:09:39.102Z,0
2017-01-19T06:10:39.132Z,0
2017-01-19T06:11:39.158Z,0
2017-01-19T06:12:39.131Z,0
2017-01-19T06:13:39.127Z,0
2017-01-19T06:14:39.130Z,0
2017-01-19T06:15:39.141Z,0
2017-01-19T06:16:39.145Z,0
2017-01-19T06:17:39.138Z,0
2017-01-19T06:18:39.116Z,0
2017-01-19T06:19:39.138Z,0
2017-01-19T06:20:39.152Z,0
2017-01-19T06:21:39.182Z,0
2017-01-19T06:22:39.190Z,0
2017-01-19T06:23:39.195Z,0
2017-01-19T06:24:39.156Z,0
2017-01-19T06:25:39.241Z,0
2017-01-19T06:26:39.118Z,0
2017-01-19T06:27:39.144Z,0
2017-01-19T06:28:39.137Z,0
2017-01-19T06:29:39.206Z,0
2017-01-19T06:30:39.154Z,0
2017-01-19T06:31:39.157Z,0
2017-01-19T06:32:39.140Z,0
2017-01-19T06:33:39.141Z,0
2017-01-19T06:34:39.165Z,0
2017-01-19T06:35:39.123Z,0
2017-01-19T06:36:39.177Z,0
2017-01-19T06:37:39.185Z,0
2017-01-19T06:38:39.217Z,0
2017-01-19T06:39:39.143Z,0
2017-01-19T06:40:39.193Z,0
2017-01-19T06:41:39.251Z,4
2017-01-19T06:42:39.142Z,4
2017-01-19T06:43:39.135Z,4
2017-01-19T06:44:39.151Z,4
2017-01-19T06:45:39.144Z,4
2017-01-19T06:46:39.142Z,4
2017-01-19T06:47:39.152Z,0
2017-01-19T06:48:39.181Z,4
2017-01-19T06:49:39.290Z,4
2017-01-19T06:50:39.157Z,0
2017-01-19T06:51:39.149Z,4
2017-01-19T06:52:39.120Z,8
2017-01-19T06:53:39.188Z,4
2017-01-19T06:54:39.223Z,8
2017-01-19T06:55:39.136Z,8
2017-01-19T06:56:39.164Z,8
2017-01-19T06:57:39.183Z,12
2017-01-19T06:58:39.190Z,12
2017-01-19T06:59:39.212Z,16
2017-01-19T07:00:39.158Z,12
2017-01-19T07:01:39.172Z,20
2017-01-19T07:02:39.189Z,20
2017-01-19T07:03:39.177Z,24
2017-01-19T07:04:39.183Z,24
2017-01-19T07:05:39.171Z,28
2017-01-19T07:06:39.148Z,36
2017-01-19T07:07:39.172Z,40
2017-01-19T07:08:39.134Z,44
2017-01-19T07:09:39.147Z,52
2017-01-19T07:10:39.164Z,60
2017-01-19T07:11:39.175Z,64
2017-01-19T07:12:39.285Z,72
2017-01-19T07:13:39.363Z,80
2017-01-19T07:14:39.155Z,92
2017-01-19T07:15:39.319Z,100
2017-01-19T07:16:39.928Z,112
2017-01-19T07:17:39.336Z,120
2017-01-19T07:18:39.170Z,136
2017-01-19T07:19:39.141Z,148
2017-01-19T07:20:39.162Z,164
2017-01-19T07:21:39.203Z,180
2017-01-19T07:22:39.229Z,196
2017-01-19T07:23:39.167Z,216
2017-01-19T07:24:39.186Z,232
2017-01-19T07:25:39.149Z,256
2017-01-19T07:26:39.216Z,280
2017-01-19T07:27:39.192Z,304
2017-01-19T07:28:39.174Z,328
2017-01-19T07:29:39.164Z,348
2017-01-19T07:30:39.151Z,372
2017-01-19T07:31:39.273Z,392
2017-01-19T07:32:39.185Z,416
2017-01-19T07:33:39.266Z,440
2017-01-19T07:34:39.188Z,460
2017-01-19T07:35:39.238Z,480
2017-01-19T07:36:39.187Z,504
2017-01-19T07:37:39.165Z,532
2017-01-19T07:38:39.169Z,560
2017-01-19T07:39:39.215Z,588
2017-01-19T07:40:39.219Z,616
2017-01-19T07:41:39.201Z,648
2017-01-19T07:42:39.153Z,680
2017-01-19T07:43:39.173Z,712
2017-01-19T07:44:39.195Z,748
2017-01-19T07:45:39.229Z,776
2017-01-19T07:46:39.249Z,808
2017-01-19T07:47:39.196Z,828
2017-01-19T07:48:39.164Z,848
2017-01-19T07:49:39.185Z,880
2017-01-19T07:50:39.207Z,920
2017-01-19T07:51:39.209Z,960
2017-01-19T07:52:39.280Z,1004
2017-01-19T07:53:39.190Z,1048
2017-01-19T07:54:39.185Z,1100
2017-01-19T07:55:39.186Z,1168
2017-01-19T07:56:39.293Z,1256
2017-01-19T07:57:39.181Z,1356
2017-01-19T07:58:39.191Z,1432
2017-01-19T07:59:39.238Z,1484
2017-01-19T08:00:39.183Z,1536
2017-01-19T08:01:39.192Z,1572
2017-01-19T08:02:39.195Z,1616
2017-01-19T08:03:39.294Z,1644
2017-01-19T08:04:39.207Z,1672
2017-01-19T08:05:39.222Z,1676
2017-01-19T08:06:39.344Z,1664
2017-01-19T08:07:39.172Z,1672
2017-01-19T08:08:39.179Z,1720
2017-01-19T08:09:39.211Z,1764
2017-01-19T08:10:39.198Z,1784
2017-01-19T08:11:39.200Z,1796
2017-01-19T08:12:39.202Z,1864
2017-01-19T08:13:39.240Z,1976
2017-01-19T08:14:39.189Z,2072
2017-01-19T08:15:39.212Z,2072
2017-01-19T08:16:39.238Z,1964
2017-01-19T08:17:39.182Z,1884
2017-01-19T08:18:39.191Z,1848
2017-01-19T08:19:39.269Z,1864
2017-01-19T08:20:39.205Z,1948
2017-01-19T08:21:39.215Z,1956
2017-01-19T08:22:39.257Z,2008
2017-01-19T08:23:39.215Z,2008
2017-01-19T08:24:39.210Z,2020
2017-01-19T08:25:39.288Z,2044
2017-01-19T08:26:39.242Z,2112
2017-01-19T08:27:39.260Z,2192
2017-01-19T08:28:39.255Z,2284
2017-01-19T08:29:39.218Z,2400
2017-01-19T08:30:39.248Z,2532
2017-01-19T08:31:39.244Z,2620
2017-01-19T08:32:39.304Z,2672
2017-01-19T08:33:39.290Z,2760
2017-01-19T08:34:39.221Z,2824
2017-01-19T08:35:39.209Z,2936
2017-01-19T08:36:39.284Z,3008
2017-01-19T08:37:39.226Z,2988
2017-01-19T08:38:39.735Z,2924
2017-01-19T08:39:39.331Z,2872
2017-01-19T08:40:39.249Z,2840
2017-01-19T08:41:39.227Z,2824
2017-01-19T08:42:39.354Z,2828
2017-01-19T08:43:39.266Z,2840
2017-01-19T08:44:39.231Z,2856
2017-01-19T08:45:39.258Z,2784
2017-01-19T08:46:39.244Z,2696
2017-01-19T08:47:39.326Z,2632
2017-01-19T08:48:39.313Z,2564
2017-01-19T08:49:39.361Z,2572
2017-01-19T08:50:39.247Z,2640
2017-01-19T08:51:39.298Z,2708
2017-01-19T08:52:39.262Z,2732
2017-01-19T08:53:39.213Z,2716
2017-01-19T08:54:39.232Z,2684
2017-01-19T08:55:39.245Z,2616
2017-01-19T08:56:39.220Z,2528
2017-01-19T08:57:39.226Z,2432
2017-01-19T08:58:39.291Z,2380
2017-01-19T08:59:39.210Z,2260
2017-01-19T09:00:39.259Z,2216
2017-01-19T09:01:39.261Z,2196
2017-01-19T09:02:39.324Z,2312
2017-01-19T09:03:39.245Z,2368
2017-01-19T09:04:39.231Z,2452
2017-01-19T09:05:39.297Z,2540
2017-01-19T09:06:39.217Z,2556
2017-01-19T09:07:39.256Z,2540
2017-01-19T09:08:39.258Z,2488
2017-01-19T09:09:39.269Z,2416
2017-01-19T09:10:39.215Z,2320
2017-01-19T09:11:39.242Z,2292
2017-01-19T09:12:39.245Z,2288
2017-01-19T09:13:39.226Z,2328
2017-01-19T09:14:39.239Z,2372
2017-01-19T09:15:39.235Z,2464
2017-01-19T09:16:39.297Z,2408
2017-01-19T09:17:39.262Z,2344
2017-01-19T09:18:39.337Z,2408
2017-01-19T09:19:39.242Z,2380
2017-01-19T09:20:39.258Z,2364
2017-01-19T09:21:39.333Z,2332
2017-01-19T09:22:39.221Z,2316
2017-01-19T09:23:39.233Z,2340
2017-01-19T09:24:39.220Z,2332
2017-01-19T09:25:39.225Z,2340
2017-01-19T09:26:39.243Z,2380
2017-01-19T09:27:39.270Z,2416
2017-01-19T09:28:39.318Z,2400
2017-01-19T09:29:39.321Z,2424
2017-01-19T09:30:39.262Z,2424
2017-01-19T09:31:39.257Z,2536
2017-01-19T09:32:39.259Z,2612
2017-01-19T09:33:39.248Z,2676
2017-01-19T09:34:39.365Z,2700
2017-01-19T09:35:39.236Z,2712
2017-01-19T09:36:39.257Z,2724
2017-01-19T09:37:39.290Z,2740
2017-01-19T09:38:39.270Z,2764
2017-01-19T09:39:39.366Z,2804
2017-01-19T09:40:39.235Z,2856
2017-01-19T09:41:39.386Z,2940
2017-01-19T09:42:39.250Z,3000
2017-01-19T09:43:39.249Z,3260
2017-01-19T09:44:39.284Z,3472
2017-01-19T09:45:39.394Z,3672
2017-01-19T09:46:39.270Z,3896
2017-01-19T09:47:39.541Z,4168
2017-01-19T09:52:56.065Z,4340
2017-01-19T09:53:06.176Z,3884
2017-01-19T09:54:06.129Z,3928
2017-01-19T09:55:06.266Z,4184
2017-01-19T09:56:06.219Z,4140
2017-01-19T09:57:06.155Z,4236
2017-01-19T09:58:06.134Z,4404
2017-01-19T09:59:06.134Z,4460
2017-01-19T10:00:06.220Z,4636
2017-01-19T10:01:06.163Z,4680
2017-01-19T10:02:06.125Z,4788
2017-01-19T10:03:06.219Z,5012
2017-01-19T10:04:06.232Z,5248
2017-01-19T10:05:06.219Z,5476
2017-01-19T10:06:06.236Z,5504
2017-01-19T10:07:06.198Z,5680
2017-01-19T10:08:06.268Z,5748
2017-01-19T10:09:06.140Z,5736
2017-01-19T10:10:06.136Z,5576
2017-01-19T10:11:06.160Z,5444
2017-01-19T10:12:06.152Z,5556
2017-01-19T10:13:06.125Z,5728
2017-01-19T10:14:06.131Z,5580
2017-01-19T10:15:06.166Z,5416
2017-01-19T10:16:06.144Z,5336
2017-01-19T10:17:06.120Z,5424
2017-01-19T10:18:06.152Z,5560
2017-01-19T10:19:06.129Z,5592
2017-01-19T10:20:06.220Z,5584
2017-01-19T10:21:06.261Z,5724
2017-01-19T10:22:06.151Z,5780
2017-01-19T10:23:06.140Z,5428
2017-01-19T10:24:06.146Z,5104
2017-01-19T10:25:06.162Z,5228
2017-01-19T10:26:06.141Z,5404
2017-01-19T10:27:06.143Z,5580
2017-01-19T10:28:06.166Z,5824
2017-01-19T10:29:06.153Z,6000
2017-01-19T10:30:06.207Z,6064
2017-01-19T10:31:06.417Z,6144
2017-01-19T10:32:06.166Z,6124
2017-01-19T10:33:06.134Z,6056
2017-01-19T10:34:06.144Z,6088
2017-01-19T10:35:06.173Z,6116
2017-01-19T10:36:06.125Z,6208
2017-01-19T10:37:06.210Z,6228
2017-01-19T10:38:06.147Z,6060
2017-01-19T10:39:06.150Z,6092
2017-01-19T10:40:06.144Z,6196
2017-01-19T10:41:06.231Z,5980
2017-01-19T10:42:06.152Z,5256
2017-01-19T10:43:06.109Z,4832
2017-01-19T10:44:06.125Z,4860
2017-01-19T10:45:06.160Z,4996
2017-01-19T10:46:06.146Z,5076
2017-01-19T10:47:06.146Z,5108
2017-01-19T10:48:06.153Z,4912
2017-01-19T10:49:06.166Z,4784
2017-01-19T10:50:06.150Z,4768
2017-01-19T10:51:06.147Z,4788
2017-01-19T10:52:06.161Z,4804
2017-01-19T10:53:06.144Z,4796
2017-01-19T10:54:06.158Z,4776
2017-01-19T10:55:06.143Z,4812
2017-01-19T10:56:06.173Z,4912
2017-01-19T10:57:06.167Z,5052
2017-01-19T10:58:06.173Z,5220
2017-01-19T10:59:06.164Z,5260
2017-01-19T11:00:06.192Z,5236
2017-01-19T11:01:06.179Z,5004
2017-01-19T11:02:06.181Z,4672
2017-01-19T11:03:06.179Z,4252
2017-01-19T11:04:06.162Z,3952
2017-01-19T11:05:06.165Z,3760
2017-01-19T11:06:06.293Z,3628
2017-01-19T11:07:06.208Z,3412
2017-01-19T11:08:06.167Z,3252
2017-01-19T11:09:06.193Z,3084
2017-01-19T11:10:06.176Z,3016
2017-01-19T11:11:06.212Z,2936
2017-01-19T11:12:06.168Z,2864
2017-01-19T11:13:06.164Z,2812
2017-01-19T11:14:06.170Z,2748
2017-01-19T11:15:06.175Z,2736
2017-01-19T11:16:06.194Z,2684
2017-01-19T11:17:06.173Z,2660
2017-01-19T11:18:06.174Z,2732
2017-01-19T11:19:06.220Z,2676
2017-01-19T11:20:06.197Z,2724
2017-01-19T11:21:06.179Z,2792
2017-01-19T11:22:06.164Z,2624
2017-01-19T11:23:06.172Z,2608
2017-01-19T11:24:06.163Z,2612
2017-01-19T11:25:06.165Z,2644
2017-01-19T11:26:06.206Z,2668
2017-01-19T11:27:06.167Z,2696
2017-01-19T11:28:06.218Z,2660
2017-01-19T11:29:06.187Z,2632
2017-01-19T11:30:06.176Z,2648
2017-01-19T11:31:06.207Z,2664
2017-01-19T11:32:06.176Z,2668
2017-01-19T11:33:06.187Z,2708
2017-01-19T11:34:06.179Z,2680
2017-01-19T11:35:06.205Z,2696
2017-01-19T11:36:06.260Z,2696
2017-01-19T11:37:06.224Z,2704
2017-01-19T11:38:06.186Z,2724
2017-01-19T11:39:06.203Z,2704
2017-01-19T11:40:06.203Z,2696
2017-01-19T11:41:06.177Z,2740
2017-01-19T11:42:06.191Z,2860
2017-01-19T11:43:06.231Z,3012
2017-01-19T11:44:06.222Z,2996
2017-01-19T11:45:06.320Z,2988
2017-01-19T11:46:06.182Z,2984
2017-01-19T11:47:06.219Z,2984
2017-01-19T11:48:06.497Z,2984
2017-01-19T11:49:06.199Z,2980
2017-01-19T11:50:06.339Z,2980
2017-01-19T11:51:06.330Z,2976
2017-01-19T11:52:06.208Z,2972
2017-01-19T11:53:06.223Z,2972
2017-01-19T11:54:06.193Z,2968
2017-01-19T11:55:06.196Z,2964
2017-01-19T11:56:06.213Z,2960
2017-01-19T11:57:06.270Z,2960
2017-01-19T11:58:06.260Z,2960
2017-01-19T11:59:06.208Z,2956
2017-01-19T12:00:06.263Z,2956
2017-01-19T12:01:06.476Z,2956
2017-01-19T12:02:06.208Z,2956
2017-01-19T12:03:06.221Z,2952
2017-01-19T12:04:06.272Z,2952
2017-01-19T12:05:06.283Z,2944
2017-01-19T12:06:06.246Z,2948
2017-01-19T12:07:09.077Z,2944
2017-01-19T12:08:06.219Z,2940
2017-01-19T12:09:06.231Z,2936
2017-01-19T12:10:06.229Z,2936
2017-01-19T12:11:06.280Z,2932
2017-01-19T12:12:06.276Z,2932
2017-01-19T12:13:06.284Z,2936
2017-01-19T12:14:06.220Z,2936
2017-01-19T12:15:06.209Z,2940
2017-01-19T12:16:06.217Z,2936
2017-01-19T12:17:06.249Z,2924
2017-01-19T12:18:06.252Z,2924
2017-01-19T12:19:06.949Z,2924
2017-01-19T12:20:06.280Z,2924
2017-01-19T12:21:06.289Z,2920
2017-01-19T12:22:06.286Z,2916
2017-01-19T12:23:06.272Z,2912
2017-01-19T12:24:06.233Z,2904
2017-01-19T12:25:06.307Z,2900
2017-01-19T12:26:06.233Z,2892
2017-01-19T12:27:06.236Z,2888
2017-01-19T12:28:06.243Z,2888
2017-01-19T12:29:06.204Z,2892
2017-01-19T12:30:06.275Z,2896
2017-01-19T12:31:06.219Z,2892
2017-01-19T12:32:06.294Z,2892
2017-01-19T12:33:06.243Z,2884
2017-01-19T12:34:06.268Z,2876
2017-01-19T12:35:06.210Z,2872
2017-01-19T12:36:06.245Z,2872
2017-01-19T12:37:06.245Z,2872
2017-01-19T12:38:06.303Z,2872
2017-01-19T12:39:06.898Z,2864
2017-01-19T12:40:06.227Z,2860
2017-01-19T12:41:06.253Z,2852
2017-01-19T12:42:06.301Z,2848
2017-01-19T12:43:06.254Z,2852
2017-01-19T12:44:06.272Z,2852
2017-01-19T12:45:06.420Z,2852
2017-01-19T12:46:06.283Z,2852
2017-01-19T12:47:06.260Z,2848
2017-01-19T12:48:06.245Z,2844
2017-01-19T12:49:06.244Z,2844
2017-01-19T12:50:06.229Z,2844
2017-01-19T12:51:06.280Z,2840
2017-01-19T12:52:06.239Z,2840
2017-01-19T12:53:06.299Z,2832
2017-01-19T12:54:06.237Z,2828
2017-01-19T12:55:06.272Z,2828
2017-01-19T12:56:06.255Z,2828
2017-01-19T12:57:06.252Z,2816
2017-01-19T12:58:06.367Z,2808
2017-01-19T12:59:07.423Z,2808
2017-01-19T13:00:06.287Z,2800
2017-01-19T13:01:06.264Z,2800
2017-01-19T13:02:06.247Z,2800
2017-01-19T13:03:06.287Z,2800
2017-01-19T13:04:06.293Z,2796
2017-01-19T13:05:06.218Z,2792
2017-01-19T13:06:06.237Z,2784
2017-01-19T13:07:06.544Z,2780
2017-01-19T13:08:07.133Z,2780
2017-01-19T13:09:06.538Z,2776
2017-01-19T13:10:06.530Z,2768
2017-01-19T13:11:06.251Z,2768
2017-01-19T13:12:06.646Z,2764
2017-01-19T13:13:06.540Z,2764
2017-01-19T13:14:06.406Z,2760
2017-01-19T13:15:06.322Z,2760
2017-01-19T13:16:06.592Z,2756
2017-01-19T13:17:07.239Z,2752
2017-01-19T13:18:09.121Z,2740
2017-01-19T13:19:10.679Z,2736
2017-01-19T13:20:06.285Z,2728
2017-01-19T13:21:06.448Z,2724
2017-01-19T13:22:06.377Z,2724
2017-01-19T13:23:06.435Z,2728
2017-01-19T13:24:06.256Z,2728
2017-01-19T13:25:06.243Z,2728
2017-01-19T13:26:06.263Z,2720
2017-01-19T13:27:06.421Z,2712
2017-01-19T13:28:06.512Z,2700
2017-01-19T13:29:06.410Z,2700
2017-01-19T13:30:06.924Z,2692
2017-01-19T13:31:06.268Z,2696
2017-01-19T13:32:06.522Z,2692
2017-01-19T13:33:06.354Z,2684
2017-01-19T13:34:06.523Z,2680
2017-01-19T13:35:06.410Z,2672
2017-01-19T13:36:06.399Z,2668
2017-01-19T13:37:06.259Z,2664
2017-01-19T13:38:06.403Z,2656
2017-01-19T13:39:06.671Z,2648
2017-01-19T13:40:06.638Z,2648
2017-01-19T13:41:07.763Z,2644
2017-01-19T13:42:06.283Z,2632
2017-01-19T13:43:06.271Z,2628
2017-01-19T13:44:06.265Z,2620
2017-01-19T13:45:06.260Z,2616
2017-01-19T13:46:06.543Z,2612
2017-01-19T13:47:06.591Z,2604
2017-01-19T13:48:06.630Z,2592
2017-01-19T13:49:06.709Z,2584
2017-01-19T13:50:06.626Z,2580
2017-01-19T13:51:06.266Z,2576
2017-01-19T13:52:06.256Z,2572
2017-01-19T13:53:06.322Z,2568
2017-01-19T13:54:06.285Z,2560
2017-01-19T13:55:06.262Z,2552
2017-01-19T13:56:06.451Z,2544
2017-01-19T13:57:06.276Z,2536
2017-01-19T13:58:06.332Z,2528
2017-01-19T13:59:06.253Z,2520
2017-01-19T14:00:06.238Z,2516
2017-01-19T14:01:06.277Z,2512
2017-01-19T14:02:06.282Z,2504
2017-01-19T14:03:09.912Z,2496
2017-01-19T14:04:06.370Z,2488
2017-01-19T14:05:06.397Z,2484
2017-01-19T14:06:06.953Z,2472
2017-01-19T14:07:06.570Z,2468
2017-01-19T14:08:06.936Z,2464
2017-01-19T14:09:06.756Z,2452
2017-01-19T14:10:06.414Z,2440
2017-01-19T14:11:06.271Z,2432
2017-01-19T14:12:06.564Z,2420
2017-01-19T14:13:06.601Z,2408
2017-01-19T14:14:07.170Z,2400
2017-01-19T14:15:06.681Z,2392
2017-01-19T14:16:06.687Z,2384
2017-01-19T14:17:06.747Z,2372
2017-01-19T14:18:06.505Z,2360
2017-01-19T14:19:06.726Z,2348
2017-01-19T14:20:06.436Z,2340
2017-01-19T14:21:06.301Z,2332
2017-01-19T14:22:06.538Z,2320
2017-01-19T14:23:10.657Z,2308
2017-01-19T14:24:06.780Z,2296
2017-01-19T14:25:06.548Z,2284
2017-01-19T14:26:06.334Z,2272